RYR52XT LEPA-LEZL
Flight info
| Callsign | RYR52XT |
|---|---|
| Flight time | 1h 18m |
| Altitude | 37000 |
| Route | BAVER DCT GERVU DCT ALT DCT RESTU DCT TOSGA DCT ROLAS DCT UNTOS DCT RIXUR DCT MGA M744 MAR |
| Aircraft | B738/M-SDE2E3FGHIRWXY/LB1 |
Departure
| Time | 2026-04-26 18:38 |
|---|---|
| Airport | Palma de Mallorca Airport (LEPA) |
Arrival
| Time | 2026-04-26 19:57 |
|---|---|
| Airport | Seville Airport (LEZL) |
| Time | Latitude | Longitude | Altitude | Speed | Heading |
|---|---|---|---|---|---|
| 2026-04-26 17:45 | 39.55147 | 2.72668 | 29 ft | 0 kts | 193° |
| 2026-04-26 18:32 | 39.55142 | 2.72666 | 29 ft | 3 kts | 193° |
| 2026-04-26 18:32 | 39.55108 | 2.72667 | 29 ft | 8 kts | 154° |
| 2026-04-26 18:32 | 39.55112 | 2.72747 | 29 ft | 13 kts | 59° |
| 2026-04-26 18:32 | 39.55166 | 2.72860 | 29 ft | 17 kts | 58° |
| 2026-04-26 18:33 | 39.55231 | 2.72996 | 29 ft | 14 kts | 58° |
| 2026-04-26 18:33 | 39.55311 | 2.73022 | 29 ft | 14 kts | 330° |
| 2026-04-26 18:33 | 39.55396 | 2.72982 | 29 ft | 13 kts | 13° |
| 2026-04-26 18:33 | 39.55452 | 2.73069 | 29 ft | 13 kts | 59° |
| 2026-04-26 18:34 | 39.55497 | 2.73164 | 29 ft | 12 kts | 58° |
| 2026-04-26 18:34 | 39.55542 | 2.73261 | 29 ft | 14 kts | 58° |
| 2026-04-26 18:34 | 39.55599 | 2.73381 | 29 ft | 17 kts | 59° |
| 2026-04-26 18:34 | 39.55668 | 2.73526 | 29 ft | 20 kts | 58° |
| 2026-04-26 18:35 | 39.55745 | 2.73690 | 29 ft | 23 kts | 58° |
| 2026-04-26 18:35 | 39.55824 | 2.73855 | 29 ft | 18 kts | 58° |
| 2026-04-26 18:35 | 39.55872 | 2.73916 | 29 ft | 7 kts | 348° |
| 2026-04-26 18:35 | 39.55916 | 2.73884 | 29 ft | 8 kts | 329° |
| 2026-04-26 18:36 | 39.55967 | 2.73842 | 29 ft | 10 kts | 329° |
| 2026-04-26 18:36 | 39.56018 | 2.73815 | 29 ft | 6 kts | 281° |
| 2026-04-26 18:36 | 39.56014 | 2.73805 | 29 ft | 0 kts | 239° |
| 2026-04-26 18:37 | 39.55983 | 2.73740 | 29 ft | 33 kts | 238° |
| 2026-04-26 18:38 | 39.55731 | 2.73209 | 29 ft | 104 kts | 238° |
| 2026-04-26 18:38 | 39.55249 | 2.72188 | 36 ft | 159 kts | 239° |
| 2026-04-26 18:38 | 39.54654 | 2.70907 | 638 ft | 164 kts | 238° |
| 2026-04-26 18:38 | 39.54027 | 2.69620 | 1275 ft | 177 kts | 236° |
| 2026-04-26 18:39 | 39.53295 | 2.68190 | 1624 ft | 207 kts | 236° |
| 2026-04-26 18:39 | 39.52466 | 2.66567 | 2082 ft | 223 kts | 235° |
| 2026-04-26 18:39 | 39.51597 | 2.64867 | 2676 ft | 229 kts | 235° |
| 2026-04-26 18:39 | 39.50713 | 2.63135 | 3415 ft | 230 kts | 235° |
| 2026-04-26 18:40 | 39.49827 | 2.61400 | 3884 ft | 230 kts | 235° |
| 2026-04-26 18:40 | 39.48944 | 2.59668 | 4620 ft | 231 kts | 235° |
| 2026-04-26 18:40 | 39.48049 | 2.57920 | 5397 ft | 234 kts | 235° |
| 2026-04-26 18:40 | 39.47152 | 2.56164 | 6191 ft | 236 kts | 235° |
| 2026-04-26 18:41 | 39.46242 | 2.54383 | 6908 ft | 239 kts | 235° |
| 2026-04-26 18:41 | 39.45327 | 2.52589 | 7630 ft | 241 kts | 236° |
| 2026-04-26 18:41 | 39.44368 | 2.50684 | 7914 ft | 266 kts | 236° |
| 2026-04-26 18:41 | 39.43318 | 2.48592 | 8277 ft | 285 kts | 236° |
| 2026-04-26 18:42 | 39.42226 | 2.46413 | 8960 ft | 291 kts | 236° |
| 2026-04-26 18:42 | 39.41121 | 2.44207 | 9753 ft | 293 kts | 236° |
| 2026-04-26 18:42 | 39.40004 | 2.41979 | 10457 ft | 299 kts | 236° |
| 2026-04-26 18:42 | 39.38828 | 2.39639 | 10659 ft | 322 kts | 236° |
| 2026-04-26 18:43 | 39.37568 | 2.37134 | 10972 ft | 340 kts | 236° |
| 2026-04-26 18:43 | 39.36708 | 2.35424 | 11341 ft | 345 kts | 236° |
| 2026-04-26 18:43 | 39.34945 | 2.31920 | 12261 ft | 350 kts | 236° |
| 2026-04-26 18:43 | 39.34062 | 2.30168 | 12742 ft | 353 kts | 236° |
| 2026-04-26 18:44 | 39.32716 | 2.27499 | 13473 ft | 357 kts | 236° |
| 2026-04-26 18:44 | 39.31353 | 2.24797 | 14196 ft | 361 kts | 236° |
| 2026-04-26 18:44 | 39.29976 | 2.22070 | 14887 ft | 364 kts | 236° |
| 2026-04-26 18:44 | 39.28131 | 2.18416 | 15812 ft | 369 kts | 236° |
| 2026-04-26 18:45 | 39.27180 | 2.16534 | 16286 ft | 372 kts | 236° |
| 2026-04-26 18:45 | 39.25758 | 2.13728 | 16966 ft | 376 kts | 236° |
| 2026-04-26 18:45 | 39.24318 | 2.10887 | 17639 ft | 381 kts | 235° |
| 2026-04-26 18:45 | 39.22859 | 2.08013 | 18317 ft | 385 kts | 235° |
| 2026-04-26 18:46 | 39.21388 | 2.05117 | 18916 ft | 388 kts | 235° |
| 2026-04-26 18:46 | 39.19902 | 2.02191 | 19514 ft | 391 kts | 236° |
| 2026-04-26 18:46 | 39.18407 | 1.99248 | 20113 ft | 394 kts | 236° |
| 2026-04-26 18:46 | 39.16899 | 1.96286 | 20714 ft | 397 kts | 236° |
| 2026-04-26 18:47 | 39.15450 | 1.93244 | 21282 ft | 401 kts | 244° |
| 2026-04-26 18:47 | 39.14591 | 1.89807 | 21847 ft | 405 kts | 255° |
| 2026-04-26 18:47 | 39.13875 | 1.86282 | 22367 ft | 409 kts | 255° |
| 2026-04-26 18:47 | 39.13154 | 1.82720 | 22904 ft | 413 kts | 255° |
| 2026-04-26 18:48 | 39.12420 | 1.79135 | 23457 ft | 415 kts | 255° |
| 2026-04-26 18:48 | 39.11669 | 1.75529 | 23968 ft | 418 kts | 254° |
| 2026-04-26 18:48 | 39.10904 | 1.71909 | 24445 ft | 420 kts | 254° |
| 2026-04-26 18:48 | 39.10129 | 1.68271 | 24927 ft | 422 kts | 254° |
| 2026-04-26 18:49 | 39.09347 | 1.64627 | 25403 ft | 424 kts | 254° |
| 2026-04-26 18:49 | 39.08558 | 1.60962 | 25836 ft | 426 kts | 254° |
| 2026-04-26 18:49 | 39.07762 | 1.57276 | 26244 ft | 430 kts | 254° |
| 2026-04-26 18:49 | 39.06960 | 1.53565 | 26723 ft | 431 kts | 254° |
| 2026-04-26 18:50 | 39.06166 | 1.49898 | 27182 ft | 432 kts | 254° |
| 2026-04-26 18:50 | 39.05356 | 1.46160 | 27544 ft | 436 kts | 254° |
| 2026-04-26 18:50 | 39.04525 | 1.42339 | 27900 ft | 439 kts | 254° |
| 2026-04-26 18:50 | 39.03711 | 1.38599 | 28334 ft | 440 kts | 254° |
| 2026-04-26 18:51 | 39.02883 | 1.34802 | 28749 ft | 442 kts | 253° |
| 2026-04-26 18:51 | 39.02047 | 1.30975 | 29078 ft | 446 kts | 254° |
| 2026-04-26 18:51 | 39.01207 | 1.27131 | 29453 ft | 448 kts | 253° |
| 2026-04-26 18:51 | 39.00361 | 1.23269 | 29843 ft | 449 kts | 253° |
| 2026-04-26 18:52 | 38.99512 | 1.19392 | 30162 ft | 452 kts | 253° |
| 2026-04-26 18:52 | 38.98654 | 1.15486 | 30442 ft | 455 kts | 253° |
| 2026-04-26 18:52 | 38.97793 | 1.11582 | 30820 ft | 454 kts | 254° |
| 2026-04-26 18:52 | 38.96932 | 1.07682 | 31201 ft | 453 kts | 254° |
| 2026-04-26 18:53 | 38.96075 | 1.03801 | 31600 ft | 451 kts | 254° |
| 2026-04-26 18:53 | 38.95219 | 0.99935 | 32036 ft | 448 kts | 254° |
| 2026-04-26 18:53 | 38.94369 | 0.96101 | 32497 ft | 445 kts | 255° |
| 2026-04-26 18:53 | 38.93520 | 0.92280 | 32920 ft | 444 kts | 254° |
| 2026-04-26 18:54 | 38.92674 | 0.88478 | 33345 ft | 442 kts | 255° |
| 2026-04-26 18:54 | 38.91831 | 0.84696 | 33750 ft | 440 kts | 255° |
| 2026-04-26 18:54 | 38.90990 | 0.80926 | 34124 ft | 439 kts | 255° |
| 2026-04-26 18:54 | 38.90150 | 0.77168 | 34425 ft | 438 kts | 255° |
| 2026-04-26 18:55 | 38.89309 | 0.73407 | 34645 ft | 439 kts | 255° |
| 2026-04-26 18:55 | 38.88464 | 0.69644 | 34883 ft | 439 kts | 255° |
| 2026-04-26 18:55 | 38.87585 | 0.65887 | 35160 ft | 439 kts | 251° |
| 2026-04-26 18:55 | 38.86486 | 0.62232 | 35433 ft | 439 kts | 248° |
| 2026-04-26 18:56 | 38.85281 | 0.58629 | 35713 ft | 439 kts | 248° |
| 2026-04-26 18:56 | 38.84092 | 0.55027 | 35949 ft | 439 kts | 248° |
| 2026-04-26 18:56 | 38.82937 | 0.51404 | 36194 ft | 439 kts | 249° |
| 2026-04-26 18:56 | 38.81722 | 0.47812 | 36432 ft | 440 kts | 243° |
| 2026-04-26 18:57 | 38.80134 | 0.44460 | 36707 ft | 439 kts | 237° |
| 2026-04-26 18:57 | 38.79016 | 0.42301 | 36890 ft | 439 kts | 237° |
| 2026-04-26 18:57 | 38.76724 | 0.37964 | 37126 ft | 440 kts | 237° |
| 2026-04-26 18:57 | 38.74995 | 0.34699 | 37113 ft | 444 kts | 237° |
| 2026-04-26 18:58 | 38.71546 | 0.28130 | 37114 ft | 443 kts | 237° |
| 2026-04-26 18:58 | 38.68143 | 0.21593 | 37124 ft | 439 kts | 237° |
| 2026-04-26 18:59 | 38.64767 | 0.15101 | 37118 ft | 437 kts | 238° |
| 2026-04-26 18:59 | 38.61408 | 0.08648 | 37122 ft | 435 kts | 238° |
| 2026-04-26 19:00 | 38.58082 | 0.02273 | 37122 ft | 434 kts | 238° |
| 2026-04-26 19:00 | 38.54724 | -0.04151 | 37141 ft | 438 kts | 238° |
| 2026-04-26 19:01 | 38.51299 | -0.10686 | 37138 ft | 446 kts | 237° |
| 2026-04-26 19:01 | 38.47837 | -0.17276 | 37125 ft | 448 kts | 237° |
| 2026-04-26 19:02 | 38.44365 | -0.23872 | 37126 ft | 448 kts | 237° |
| 2026-04-26 19:02 | 38.41452 | -0.29400 | 37121 ft | 448 kts | 237° |
| 2026-04-26 19:03 | 38.37412 | -0.37052 | 37128 ft | 447 kts | 237° |
| 2026-04-26 19:03 | 38.33941 | -0.43607 | 37127 ft | 445 kts | 237° |
| 2026-04-26 19:04 | 38.30480 | -0.50136 | 37128 ft | 444 kts | 237° |
| 2026-04-26 19:04 | 38.27039 | -0.56643 | 37128 ft | 442 kts | 239° |
| 2026-04-26 19:05 | 38.23060 | -0.67151 | 37127 ft | 439 kts | 248° |
| 2026-04-26 19:06 | 38.20585 | -0.74226 | 37133 ft | 437 kts | 247° |
| 2026-04-26 19:06 | 38.18069 | -0.81267 | 37130 ft | 437 kts | 247° |
| 2026-04-26 19:07 | 38.15528 | -0.88289 | 37138 ft | 438 kts | 247° |
| 2026-04-26 19:07 | 38.12974 | -0.95307 | 37134 ft | 438 kts | 247° |
| 2026-04-26 19:08 | 38.10414 | -1.02331 | 37140 ft | 438 kts | 247° |
| 2026-04-26 19:08 | 38.07846 | -1.09362 | 37123 ft | 439 kts | 247° |
| 2026-04-26 19:09 | 38.05272 | -1.16393 | 37126 ft | 439 kts | 247° |
| 2026-04-26 19:09 | 38.02694 | -1.23421 | 37130 ft | 440 kts | 246° |
| 2026-04-26 19:10 | 38.00110 | -1.30449 | 37127 ft | 439 kts | 246° |
| 2026-04-26 19:10 | 37.97524 | -1.37461 | 37123 ft | 439 kts | 246° |
| 2026-04-26 19:11 | 37.94937 | -1.44467 | 37133 ft | 439 kts | 246° |
| 2026-04-26 19:11 | 37.92368 | -1.51410 | 37127 ft | 438 kts | 246° |
| 2026-04-26 19:12 | 37.89761 | -1.58430 | 37137 ft | 437 kts | 246° |
| 2026-04-26 19:12 | 37.87184 | -1.65344 | 37129 ft | 437 kts | 246° |
| 2026-04-26 19:13 | 37.84590 | -1.72292 | 37129 ft | 436 kts | 246° |
| 2026-04-26 19:13 | 37.81999 | -1.79218 | 37136 ft | 435 kts | 246° |
| 2026-04-26 19:14 | 37.79408 | -1.86137 | 37130 ft | 435 kts | 246° |
| 2026-04-26 19:14 | 37.76812 | -1.93041 | 37123 ft | 435 kts | 246° |
| 2026-04-26 19:15 | 37.74215 | -1.99936 | 37149 ft | 434 kts | 246° |
| 2026-04-26 19:15 | 37.71614 | -2.06831 | 37147 ft | 435 kts | 246° |
| 2026-04-26 19:16 | 37.69004 | -2.13730 | 37120 ft | 435 kts | 246° |
| 2026-04-26 19:16 | 37.66394 | -2.20614 | 37136 ft | 435 kts | 246° |
| 2026-04-26 19:17 | 37.63781 | -2.27499 | 37146 ft | 435 kts | 246° |
| 2026-04-26 19:17 | 37.61163 | -2.34373 | 37148 ft | 435 kts | 246° |
| 2026-04-26 19:18 | 37.58538 | -2.41254 | 37141 ft | 436 kts | 246° |
| 2026-04-26 19:18 | 37.55908 | -2.48137 | 37135 ft | 436 kts | 246° |
| 2026-04-26 19:19 | 37.53270 | -2.55032 | 37139 ft | 437 kts | 246° |
| 2026-04-26 19:19 | 37.50623 | -2.61924 | 37127 ft | 437 kts | 246° |
| 2026-04-26 19:20 | 37.47970 | -2.68819 | 37126 ft | 437 kts | 246° |
| 2026-04-26 19:20 | 37.45318 | -2.75702 | 37116 ft | 437 kts | 246° |
| 2026-04-26 19:21 | 37.42665 | -2.82574 | 37114 ft | 436 kts | 246° |
| 2026-04-26 19:21 | 37.40012 | -2.89422 | 37115 ft | 436 kts | 246° |
| 2026-04-26 19:22 | 37.37352 | -2.96273 | 37109 ft | 436 kts | 246° |
| 2026-04-26 19:22 | 37.34692 | -3.03108 | 37111 ft | 435 kts | 246° |
| 2026-04-26 19:23 | 37.32038 | -3.09920 | 37109 ft | 434 kts | 246° |
| 2026-04-26 19:23 | 37.29381 | -3.16723 | 37103 ft | 434 kts | 246° |
| 2026-04-26 19:24 | 37.26742 | -3.23465 | 37110 ft | 433 kts | 246° |
| 2026-04-26 19:24 | 37.22749 | -3.33630 | 37105 ft | 433 kts | 245° |
| 2026-04-26 19:25 | 37.20964 | -3.38160 | 37084 ft | 433 kts | 245° |
| 2026-04-26 19:25 | 37.17414 | -3.47160 | 37099 ft | 432 kts | 246° |
| 2026-04-26 19:26 | 37.14742 | -3.53919 | 36850 ft | 435 kts | 246° |
| 2026-04-26 19:26 | 37.13405 | -3.57296 | 36588 ft | 429 kts | 246° |
| 2026-04-26 19:26 | 37.12085 | -3.60623 | 36181 ft | 425 kts | 246° |
| 2026-04-26 19:27 | 37.10778 | -3.63915 | 35818 ft | 420 kts | 246° |
| 2026-04-26 19:27 | 37.09482 | -3.67174 | 35410 ft | 417 kts | 246° |
| 2026-04-26 19:27 | 37.08191 | -3.70415 | 35014 ft | 414 kts | 246° |
| 2026-04-26 19:27 | 37.06910 | -3.73629 | 34633 ft | 411 kts | 246° |
| 2026-04-26 19:28 | 37.05637 | -3.76821 | 34242 ft | 409 kts | 246° |
| 2026-04-26 19:28 | 37.04370 | -3.79996 | 33821 ft | 406 kts | 246° |
| 2026-04-26 19:28 | 37.03110 | -3.83150 | 33395 ft | 404 kts | 246° |
| 2026-04-26 19:28 | 37.01858 | -3.86281 | 33004 ft | 401 kts | 246° |
| 2026-04-26 19:29 | 37.00616 | -3.89383 | 32613 ft | 398 kts | 246° |
| 2026-04-26 19:29 | 36.99383 | -3.92463 | 32259 ft | 394 kts | 246° |
| 2026-04-26 19:29 | 36.98159 | -3.95517 | 31889 ft | 392 kts | 246° |
| 2026-04-26 19:29 | 36.96942 | -3.98549 | 31531 ft | 389 kts | 246° |
| 2026-04-26 19:30 | 36.95733 | -4.01560 | 31172 ft | 386 kts | 245° |
| 2026-04-26 19:30 | 36.94530 | -4.04551 | 30820 ft | 384 kts | 245° |
| 2026-04-26 19:30 | 36.93737 | -4.06522 | 30596 ft | 382 kts | 245° |
| 2026-04-26 19:30 | 36.92931 | -4.08524 | 30357 ft | 381 kts | 245° |
| 2026-04-26 19:31 | 36.91362 | -4.12420 | 29836 ft | 377 kts | 245° |
| 2026-04-26 19:31 | 36.89791 | -4.16311 | 29323 ft | 373 kts | 245° |
| 2026-04-26 19:31 | 36.89021 | -4.18218 | 29083 ft | 370 kts | 245° |
| 2026-04-26 19:31 | 36.87864 | -4.21078 | 28705 ft | 367 kts | 245° |
| 2026-04-26 19:32 | 36.86718 | -4.23912 | 28343 ft | 364 kts | 245° |
| 2026-04-26 19:32 | 36.85580 | -4.26726 | 27976 ft | 361 kts | 245° |
| 2026-04-26 19:32 | 36.84450 | -4.29514 | 27623 ft | 359 kts | 245° |
| 2026-04-26 19:32 | 36.83327 | -4.32284 | 27256 ft | 357 kts | 245° |
| 2026-04-26 19:33 | 36.82401 | -4.35130 | 26871 ft | 352 kts | 261° |
| 2026-04-26 19:33 | 36.82346 | -4.38126 | 26515 ft | 345 kts | 280° |
| 2026-04-26 19:33 | 36.83060 | -4.40974 | 26061 ft | 343 kts | 296° |
| 2026-04-26 19:33 | 36.84134 | -4.43624 | 25668 ft | 342 kts | 299° |
| 2026-04-26 19:34 | 36.85265 | -4.46231 | 25318 ft | 341 kts | 300° |
| 2026-04-26 19:34 | 36.86401 | -4.48820 | 24980 ft | 339 kts | 300° |
| 2026-04-26 19:34 | 36.87526 | -4.51397 | 24637 ft | 337 kts | 299° |
| 2026-04-26 19:34 | 36.88640 | -4.53972 | 24286 ft | 337 kts | 299° |
| 2026-04-26 19:35 | 36.89744 | -4.56546 | 23950 ft | 336 kts | 299° |
| 2026-04-26 19:35 | 36.90840 | -4.59119 | 23588 ft | 335 kts | 298° |
| 2026-04-26 19:35 | 36.91930 | -4.61686 | 23207 ft | 333 kts | 298° |
| 2026-04-26 19:35 | 36.93013 | -4.64243 | 22828 ft | 332 kts | 298° |
| 2026-04-26 19:36 | 36.94089 | -4.66789 | 22480 ft | 330 kts | 298° |
| 2026-04-26 19:36 | 36.94797 | -4.68464 | 22259 ft | 329 kts | 298° |
| 2026-04-26 19:36 | 36.96219 | -4.71832 | 21807 ft | 326 kts | 298° |
| 2026-04-26 19:36 | 36.97275 | -4.74337 | 21464 ft | 325 kts | 298° |
| 2026-04-26 19:37 | 36.98325 | -4.76829 | 21130 ft | 323 kts | 298° |
| 2026-04-26 19:37 | 36.99370 | -4.79309 | 20799 ft | 321 kts | 298° |
| 2026-04-26 19:37 | 37.00407 | -4.81777 | 20478 ft | 320 kts | 298° |
| 2026-04-26 19:37 | 37.01443 | -4.84241 | 20152 ft | 319 kts | 298° |
| 2026-04-26 19:38 | 37.02474 | -4.86697 | 19825 ft | 318 kts | 298° |
| 2026-04-26 19:38 | 37.03498 | -4.89139 | 19498 ft | 316 kts | 298° |
| 2026-04-26 19:38 | 37.04521 | -4.91576 | 19164 ft | 316 kts | 297° |
| 2026-04-26 19:38 | 37.05520 | -4.94018 | 18837 ft | 315 kts | 293° |
| 2026-04-26 19:39 | 37.06178 | -4.96654 | 18341 ft | 321 kts | 283° |
| 2026-04-26 19:39 | 37.06648 | -4.99383 | 17944 ft | 320 kts | 281° |
| 2026-04-26 19:39 | 37.07091 | -5.02101 | 17592 ft | 318 kts | 281° |
| 2026-04-26 19:39 | 37.07538 | -5.04813 | 17215 ft | 317 kts | 282° |
| 2026-04-26 19:40 | 37.07992 | -5.07508 | 16898 ft | 315 kts | 282° |
| 2026-04-26 19:40 | 37.08452 | -5.10184 | 16577 ft | 313 kts | 282° |
| 2026-04-26 19:40 | 37.08907 | -5.12806 | 16266 ft | 312 kts | 282° |
| 2026-04-26 19:40 | 37.09369 | -5.15445 | 15946 ft | 309 kts | 282° |
| 2026-04-26 19:41 | 37.09831 | -5.18068 | 15616 ft | 308 kts | 282° |
| 2026-04-26 19:41 | 37.10293 | -5.20682 | 15302 ft | 307 kts | 282° |
| 2026-04-26 19:41 | 37.10751 | -5.23281 | 14991 ft | 306 kts | 282° |
| 2026-04-26 19:41 | 37.11061 | -5.25037 | 14782 ft | 305 kts | 282° |
| 2026-04-26 19:42 | 37.11665 | -5.28465 | 14369 ft | 304 kts | 282° |
| 2026-04-26 19:42 | 37.12120 | -5.31046 | 14057 ft | 303 kts | 282° |
| 2026-04-26 19:42 | 37.12574 | -5.33628 | 13702 ft | 304 kts | 281° |
| 2026-04-26 19:42 | 37.13026 | -5.36209 | 13357 ft | 303 kts | 282° |
| 2026-04-26 19:43 | 37.13478 | -5.38789 | 13020 ft | 303 kts | 282° |
| 2026-04-26 19:43 | 37.13928 | -5.41359 | 12711 ft | 301 kts | 281° |
| 2026-04-26 19:43 | 37.14374 | -5.43909 | 12389 ft | 299 kts | 282° |
| 2026-04-26 19:43 | 37.14821 | -5.46460 | 12049 ft | 299 kts | 282° |
| 2026-04-26 19:44 | 37.15265 | -5.49001 | 11738 ft | 298 kts | 282° |
| 2026-04-26 19:44 | 37.15706 | -5.51532 | 11442 ft | 296 kts | 282° |
| 2026-04-26 19:44 | 37.16145 | -5.54049 | 11130 ft | 295 kts | 282° |
| 2026-04-26 19:44 | 37.16582 | -5.56562 | 10805 ft | 295 kts | 282° |
| 2026-04-26 19:45 | 37.17018 | -5.59073 | 10503 ft | 294 kts | 282° |
| 2026-04-26 19:45 | 37.17452 | -5.61575 | 10221 ft | 293 kts | 282° |
| 2026-04-26 19:45 | 37.17877 | -5.64048 | 9998 ft | 289 kts | 282° |
| 2026-04-26 19:45 | 37.18297 | -5.66518 | 9667 ft | 289 kts | 282° |
| 2026-04-26 19:46 | 37.18713 | -5.68978 | 9365 ft | 288 kts | 282° |
| 2026-04-26 19:46 | 37.19126 | -5.71428 | 9077 ft | 287 kts | 282° |
| 2026-04-26 19:46 | 37.19534 | -5.73841 | 8780 ft | 287 kts | 282° |
| 2026-04-26 19:46 | 37.19946 | -5.76285 | 8487 ft | 287 kts | 282° |
| 2026-04-26 19:47 | 37.20357 | -5.78728 | 8192 ft | 287 kts | 282° |
| 2026-04-26 19:47 | 37.20635 | -5.80381 | 7996 ft | 286 kts | 282° |
| 2026-04-26 19:47 | 37.21176 | -5.83600 | 7618 ft | 284 kts | 282° |
| 2026-04-26 19:47 | 37.21582 | -5.86018 | 7307 ft | 284 kts | 282° |
| 2026-04-26 19:48 | 37.21990 | -5.88443 | 7014 ft | 284 kts | 282° |
| 2026-04-26 19:48 | 37.22395 | -5.90863 | 6737 ft | 283 kts | 282° |
| 2026-04-26 19:48 | 37.22800 | -5.93284 | 6429 ft | 284 kts | 282° |
| 2026-04-26 19:48 | 37.23205 | -5.95708 | 6103 ft | 284 kts | 282° |
| 2026-04-26 19:49 | 37.23609 | -5.98123 | 5813 ft | 282 kts | 282° |
| 2026-04-26 19:49 | 37.24009 | -6.00525 | 5558 ft | 280 kts | 282° |
| 2026-04-26 19:49 | 37.24405 | -6.02908 | 5273 ft | 279 kts | 282° |
| 2026-04-26 19:49 | 37.24801 | -6.05285 | 4984 ft | 279 kts | 282° |
| 2026-04-26 19:50 | 37.25448 | -6.07556 | 4666 ft | 277 kts | 306° |
| 2026-04-26 19:50 | 37.26830 | -6.09101 | 4466 ft | 261 kts | 334° |
| 2026-04-26 19:50 | 37.28483 | -6.09808 | 4307 ft | 244 kts | 353° |
| 2026-04-26 19:50 | 37.30120 | -6.10084 | 4202 ft | 232 kts | 356° |
| 2026-04-26 19:51 | 37.31676 | -6.10289 | 4103 ft | 217 kts | 356° |
| 2026-04-26 19:51 | 37.33125 | -6.10484 | 4040 ft | 205 kts | 355° |
| 2026-04-26 19:51 | 37.34529 | -6.10680 | 3938 ft | 202 kts | 355° |
| 2026-04-26 19:51 | 37.35914 | -6.10886 | 3811 ft | 201 kts | 355° |
| 2026-04-26 19:52 | 37.37314 | -6.11093 | 3626 ft | 203 kts | 355° |
| 2026-04-26 19:52 | 37.38707 | -6.11305 | 3457 ft | 199 kts | 355° |
| 2026-04-26 19:52 | 37.40073 | -6.11438 | 3229 ft | 194 kts | 8° |
| 2026-04-26 19:52 | 37.41222 | -6.10711 | 2989 ft | 184 kts | 53° |
| 2026-04-26 19:53 | 37.41685 | -6.09300 | 2791 ft | 175 kts | 85° |
| 2026-04-26 19:53 | 37.41726 | -6.07773 | 2621 ft | 177 kts | 88° |
| 2026-04-26 19:53 | 37.41748 | -6.06223 | 2380 ft | 175 kts | 89° |
| 2026-04-26 19:53 | 37.41754 | -6.04740 | 2181 ft | 167 kts | 90° |
| 2026-04-26 19:54 | 37.41757 | -6.03328 | 2010 ft | 158 kts | 91° |
| 2026-04-26 19:54 | 37.41757 | -6.01975 | 1797 ft | 149 kts | 91° |
| 2026-04-26 19:54 | 37.41760 | -6.00684 | 1576 ft | 145 kts | 91° |
| 2026-04-26 19:54 | 37.41761 | -5.99432 | 1366 ft | 140 kts | 90° |
| 2026-04-26 19:55 | 37.41770 | -5.98212 | 1199 ft | 142 kts | 91° |
| 2026-04-26 19:55 | 37.41773 | -5.96954 | 1035 ft | 145 kts | 92° |
| 2026-04-26 19:55 | 37.41769 | -5.95680 | 871 ft | 145 kts | 91° |
| 2026-04-26 19:55 | 37.41779 | -5.94414 | 652 ft | 146 kts | 90° |
| 2026-04-26 19:56 | 37.41783 | -5.93165 | 460 ft | 140 kts | 92° |
| 2026-04-26 19:56 | 37.41783 | -5.91923 | 244 ft | 145 kts | 90° |
| 2026-04-26 19:56 | 37.41790 | -5.90667 | 102 ft | 139 kts | 90° |
| 2026-04-26 19:56 | 37.41793 | -5.89626 | 97 ft | 91 kts | 90° |
| 2026-04-26 19:57 | 37.41795 | -5.89072 | 101 ft | 47 kts | 90° |
| 2026-04-26 19:57 | 37.41798 | -5.88822 | 102 ft | 16 kts | 77° |
| 2026-04-26 19:57 | 37.41888 | -5.88765 | 103 ft | 15 kts | 11° |
| 2026-04-26 19:57 | 37.41977 | -5.88768 | 102 ft | 11 kts | 310° |
| 2026-04-26 19:58 | 37.41985 | -5.88864 | 101 ft | 12 kts | 269° |
| 2026-04-26 19:58 | 37.41984 | -5.88981 | 100 ft | 15 kts | 269° |
| 2026-04-26 19:58 | 37.41984 | -5.89126 | 99 ft | 18 kts | 270° |
| 2026-04-26 19:58 | 37.41983 | -5.89288 | 98 ft | 17 kts | 270° |
| 2026-04-26 19:59 | 37.41982 | -5.89437 | 97 ft | 17 kts | 270° |
| 2026-04-26 19:59 | 37.41982 | -5.89581 | 97 ft | 16 kts | 270° |
| 2026-04-26 19:59 | 37.41981 | -5.89720 | 96 ft | 16 kts | 270° |
| 2026-04-26 19:59 | 37.41982 | -5.89845 | 95 ft | 11 kts | 277° |
| 2026-04-26 20:00 | 37.42031 | -5.89900 | 95 ft | 10 kts | 327° |
| 2026-04-26 20:00 | 37.42053 | -5.89981 | 93 ft | 10 kts | 271° |
| 2026-04-26 20:00 | 37.42052 | -5.90069 | 93 ft | 10 kts | 270° |
| 2026-04-26 20:00 | 37.42053 | -5.90137 | 93 ft | 5 kts | 277° |
| 2026-04-26 20:01 | 37.42083 | -5.90138 | 93 ft | 5 kts | 31° |
| 2026-04-26 20:01 | 37.42106 | -5.90119 | 93 ft | 1 kts | 33° |
| 2026-04-26 20:01 | 37.42107 | -5.90118 | 93 ft | 0 kts | 33° |